createdAt,value
2023-03-10T00:01:33.031Z,98416.59
2023-03-10T00:04:02.028Z,98412.34
2023-03-10T00:06:33.134Z,98415.94
2023-03-10T00:09:00.298Z,98413.44
2023-03-10T00:11:27.828Z,98419.53
2023-03-10T00:13:54.890Z,98411.94
2023-03-10T00:16:24.865Z,98405.69
2023-03-10T00:18:52.671Z,98421.13
2023-03-10T00:21:25.739Z,98416.72
2023-03-10T00:23:53.783Z,98418.41
2023-03-10T00:26:22.523Z,98420.88
2023-03-10T00:28:50.149Z,98425.97
2023-03-10T00:31:19.824Z,98413.69
2023-03-10T00:33:47.325Z,98435.38
2023-03-10T00:36:20.532Z,98429.19
2023-03-10T00:38:49.723Z,98441.47
2023-03-10T00:41:19.759Z,98434.41
2023-03-10T00:43:47.255Z,98430.63
2023-03-10T00:46:14.545Z,98446.84
2023-03-10T00:48:42.011Z,98433.63
2023-03-10T00:51:09.952Z,98439.97
2023-03-10T00:53:41.004Z,98441.72
2023-03-10T00:56:18.507Z,98443.56
2023-03-10T00:58:46.510Z,98432.22
2023-03-10T01:01:15.321Z,98434.97
2023-03-10T01:03:42.916Z,98442.44
2023-03-10T01:06:10.877Z,98405.00
2023-03-10T01:08:38.250Z,98440.69
2023-03-10T01:11:05.422Z,98439.03
2023-03-10T01:13:32.576Z,98444.06
2023-03-10T01:15:59.656Z,98443.06
2023-03-10T01:18:26.734Z,98436.03
2023-03-10T01:20:53.832Z,98443.94
2023-03-10T01:23:25.697Z,98440.38
2023-03-10T01:25:52.853Z,98446.22
2023-03-10T01:28:20.836Z,98444.28
2023-03-10T01:30:48.948Z,98439.31
2023-03-10T01:33:17.805Z,98444.38
2023-03-10T01:35:45.200Z,98443.34
2023-03-10T01:38:12.709Z,98381.28
2023-03-10T01:40:40.653Z,98423.88
2023-03-10T01:43:19.790Z,98429.03
2023-03-10T01:45:46.744Z,98445.47
2023-03-10T01:48:17.838Z,98457.25
2023-03-10T01:50:48.504Z,98452.91
2023-03-10T01:53:19.194Z,98459.56
2023-03-10T01:55:50.353Z,98444.75
2023-03-10T01:58:20.797Z,98451.72
2023-03-10T02:00:48.568Z,98470.28
2023-03-10T02:03:21.641Z,98461.59
2023-03-10T02:05:57.566Z,98456.31
2023-03-10T02:08:29.400Z,98476.03
2023-03-10T02:10:58.245Z,98471.75
2023-03-10T02:13:25.289Z,98488.06
2023-03-10T02:15:53.497Z,98456.78
2023-03-10T02:18:22.361Z,98485.34
2023-03-10T02:21:12.231Z,98480.97
2023-03-10T02:24:05.538Z,98494.53
2023-03-10T02:27:10.189Z,98492.75
2023-03-10T02:29:57.970Z,98482.22
2023-03-10T02:32:30.304Z,98490.72
2023-03-10T02:34:57.760Z,98500.06
2023-03-10T02:37:28.558Z,98482.81
2023-03-10T02:39:56.103Z,98502.56
2023-03-10T02:42:26.981Z,98449.28
2023-03-10T02:44:54.680Z,98505.03
2023-03-10T02:47:21.968Z,98514.50
2023-03-10T02:49:49.345Z,98498.06
2023-03-10T02:52:59.537Z,98526.56
2023-03-10T02:55:26.680Z,98527.09
2023-03-10T02:57:54.032Z,98524.31
2023-03-10T03:00:21.467Z,98512.88
2023-03-10T03:02:48.548Z,98509.25
2023-03-10T03:05:15.675Z,98483.22
2023-03-10T03:07:42.709Z,98521.16
2023-03-10T03:10:10.419Z,98530.44
2023-03-10T03:12:37.489Z,98523.28
2023-03-10T03:15:05.446Z,98527.66
2023-03-10T03:17:32.755Z,98522.41
2023-03-10T03:19:59.963Z,98529.84
2023-03-10T03:22:27.137Z,98513.09
2023-03-10T03:24:54.588Z,98519.78
2023-03-10T03:27:21.593Z,98544.03
2023-03-10T03:29:48.914Z,98540.22
2023-03-10T03:32:16.026Z,98547.78
2023-03-10T03:34:43.076Z,98525.00
2023-03-10T03:37:10.245Z,98541.47
2023-03-10T03:39:39.552Z,98544.72
2023-03-10T03:42:08.553Z,98559.97
2023-03-10T03:44:50.644Z,98556.38
2023-03-10T03:47:17.809Z,98557.91
2023-03-10T03:49:44.832Z,98529.91
2023-03-10T03:52:12.765Z,98545.50
2023-03-10T03:54:39.828Z,98564.50
2023-03-10T03:57:06.853Z,98559.13
2023-03-10T03:59:34.050Z,98568.63
2023-03-10T04:02:01.066Z,98568.63
2023-03-10T04:04:28.609Z,98573.41
2023-03-10T04:06:56.319Z,98568.34
2023-03-10T04:09:23.830Z,98567.53
2023-03-10T04:11:50.922Z,98565.84
2023-03-10T04:14:18.759Z,98565.84
2023-03-10T04:16:45.788Z,98563.94
2023-03-10T04:19:13.162Z,98578.53
2023-03-10T04:21:43.668Z,98583.38
2023-03-10T04:24:12.056Z,98588.44
2023-03-10T04:26:39.068Z,98588.06
2023-03-10T04:29:06.299Z,98593.25
2023-03-10T04:31:35.900Z,98593.38
2023-03-10T04:34:04.208Z,98586.41
2023-03-10T04:36:32.644Z,98590.53
2023-03-10T04:39:01.922Z,98599.34
2023-03-10T04:41:31.504Z,98604.41
2023-03-10T04:43:59.075Z,98620.06
2023-03-10T04:46:26.402Z,98624.94
2023-03-10T04:48:56.036Z,98615.34
2023-03-10T04:51:23.077Z,98607.50
2023-03-10T04:53:52.335Z,98615.28
2023-03-10T04:56:21.264Z,98639.03
2023-03-10T04:58:48.450Z,98635.22
2023-03-10T05:01:16.596Z,98637.03
2023-03-10T05:03:48.392Z,98630.16
2023-03-10T05:06:20.468Z,98629.25
2023-03-10T05:09:11.172Z,98644.72
2023-03-10T05:11:38.789Z,98652.88
2023-03-10T05:14:05.888Z,98647.59
2023-03-10T05:16:33.094Z,98655.22
2023-03-10T05:19:00.149Z,98663.84
2023-03-10T05:21:29.508Z,98673.19
2023-03-10T05:23:58.097Z,98674.25
2023-03-10T05:26:26.279Z,98653.16
2023-03-10T05:28:54.165Z,98682.47
2023-03-10T05:31:29.319Z,98654.53
2023-03-10T05:34:03.196Z,98676.16
2023-03-10T05:36:30.346Z,98640.16
2023-03-10T05:38:57.447Z,98690.56
2023-03-10T05:41:24.535Z,98692.97
2023-03-10T05:43:55.941Z,98671.22
2023-03-10T05:46:24.019Z,98680.09
2023-03-10T05:48:54.957Z,98692.31
2023-03-10T05:51:22.227Z,98699.69
2023-03-10T05:53:49.482Z,98704.13
2023-03-10T05:56:23.139Z,98698.34
2023-03-10T05:58:54.272Z,98707.25
2023-03-10T06:01:27.698Z,98712.22
2023-03-10T06:03:54.859Z,98711.97
2023-03-10T06:06:21.911Z,98724.81
2023-03-10T06:08:48.928Z,98732.81
2023-03-10T06:11:16.040Z,98715.28
2023-03-10T06:13:43.028Z,98725.84
2023-03-10T06:16:11.722Z,98748.78
2023-03-10T06:18:38.890Z,98736.75
2023-03-10T06:21:08.938Z,98738.72
2023-03-10T06:23:37.198Z,98750.56
2023-03-10T06:26:23.003Z,98758.44
2023-03-10T06:28:49.997Z,98767.63
2023-03-10T06:31:22.801Z,98766.31
2023-03-10T06:33:50.369Z,98769.00
2023-03-10T06:36:18.728Z,98770.56
2023-03-10T06:38:45.815Z,98782.53
2023-03-10T06:41:13.365Z,98774.50
2023-03-10T06:43:41.165Z,98763.75
2023-03-10T06:46:10.079Z,98779.88
2023-03-10T06:48:38.602Z,98784.44
2023-03-10T06:51:10.707Z,98781.25
2023-03-10T06:53:37.927Z,98772.28
2023-03-10T06:56:12.179Z,98792.38
2023-03-10T06:58:40.126Z,98774.94
2023-03-10T07:01:08.334Z,98782.50
2023-03-10T07:03:36.477Z,98798.81
2023-03-10T07:06:03.637Z,98775.09
2023-03-10T07:08:31.053Z,98794.84
2023-03-10T07:10:58.138Z,98787.84
2023-03-10T07:13:25.178Z,98802.56
2023-03-10T07:15:52.276Z,98807.00
2023-03-10T07:18:19.644Z,98789.72
2023-03-10T07:20:48.246Z,98804.19
2023-03-10T07:23:15.653Z,98788.03
2023-03-10T07:25:42.840Z,98795.38
2023-03-10T07:28:09.887Z,98818.84
2023-03-10T07:30:38.821Z,98804.28
2023-03-10T07:33:06.068Z,98821.72
2023-03-10T07:35:35.529Z,98822.47
2023-03-10T07:38:04.374Z,98815.72
2023-03-10T07:40:31.566Z,98838.41
2023-03-10T07:42:58.667Z,98825.81
2023-03-10T07:45:27.741Z,98841.44
2023-03-10T07:47:54.973Z,98838.03
2023-03-10T07:50:22.763Z,98845.72
2023-03-10T07:52:50.310Z,98833.50
2023-03-10T07:55:18.317Z,98842.53
2023-03-10T07:57:45.478Z,98854.50
2023-03-10T08:00:13.343Z,98839.03
2023-03-10T08:02:41.050Z,98852.47
2023-03-10T08:05:09.913Z,98820.50
2023-03-10T08:07:38.207Z,98853.53
2023-03-10T08:10:06.972Z,98797.91
2023-03-10T08:12:34.415Z,98793.63
2023-03-10T08:15:01.545Z,98861.72
2023-03-10T08:17:33.750Z,98859.50
2023-03-10T08:20:01.367Z,98865.38
2023-03-10T08:22:30.500Z,98865.16
2023-03-10T08:24:59.590Z,98865.09
2023-03-10T08:27:28.950Z,98871.69
2023-03-10T08:29:56.452Z,98873.00
2023-03-10T08:32:23.539Z,98875.63
2023-03-10T08:34:50.613Z,98858.38
2023-03-10T08:37:18.028Z,98877.03
2023-03-10T08:39:45.016Z,98864.19
2023-03-10T08:42:12.972Z,98893.53
2023-03-10T08:44:40.613Z,98897.38
2023-03-10T08:47:08.001Z,98904.03
2023-03-10T08:49:35.598Z,98905.88
2023-03-10T08:52:02.837Z,98907.59
2023-03-10T08:54:32.398Z,98910.38
2023-03-10T08:57:00.460Z,98888.53
2023-03-10T08:59:27.661Z,98902.47
2023-03-10T09:01:54.716Z,98911.44
2023-03-10T09:04:21.747Z,98920.09
2023-03-10T09:06:48.785Z,98899.59
2023-03-10T09:09:15.891Z,98919.78
2023-03-10T09:11:43.716Z,98930.09
2023-03-10T09:14:12.278Z,98894.72
2023-03-10T09:16:40.537Z,98904.97
2023-03-10T09:19:08.299Z,98928.66
2023-03-10T09:21:35.737Z,98896.13
2023-03-10T09:24:03.246Z,98925.91
2023-03-10T09:26:30.780Z,98920.78
2023-03-10T09:28:57.802Z,98882.19
2023-03-10T09:31:28.704Z,98928.13
2023-03-10T09:33:55.783Z,98924.50
2023-03-10T09:36:22.991Z,98939.22
2023-03-10T09:38:50.064Z,98925.25
2023-03-10T09:41:28.813Z,98920.94
2023-03-10T09:44:22.629Z,98933.91
2023-03-10T09:47:09.879Z,98934.78
2023-03-10T09:49:46.356Z,98943.00
2023-03-10T09:52:20.059Z,98939.50
2023-03-10T09:55:14.208Z,98953.19
2023-03-10T09:57:41.737Z,98959.91
2023-03-10T10:00:21.946Z,98969.19
2023-03-10T10:02:51.611Z,98971.13
2023-03-10T10:05:26.186Z,98962.19
2023-03-10T10:07:57.289Z,98961.09
2023-03-10T10:10:27.533Z,98957.75
2023-03-10T10:12:56.481Z,98967.41
2023-03-10T10:15:26.919Z,98969.63
2023-03-10T10:18:19.633Z,98955.72
2023-03-10T10:20:59.127Z,98963.44
2023-03-10T10:23:28.985Z,98961.38
2023-03-10T10:25:57.019Z,98956.31
2023-03-10T10:28:48.250Z,98978.59
2023-03-10T10:31:22.024Z,98977.69
2023-03-10T10:34:04.132Z,98990.13
2023-03-10T10:36:36.944Z,98995.22
2023-03-10T10:39:27.882Z,98981.59
2023-03-10T10:41:55.270Z,98968.81
2023-03-10T10:44:22.391Z,98991.34
2023-03-10T10:46:57.751Z,98987.94
2023-03-10T10:49:28.054Z,98995.44
2023-03-10T10:52:04.636Z,98975.97
2023-03-10T10:54:37.963Z,98971.25
2023-03-10T10:57:18.557Z,98950.22
2023-03-10T10:59:45.919Z,98987.41
2023-03-10T11:02:34.903Z,99011.72
2023-03-10T11:05:22.633Z,98990.91
2023-03-10T11:07:50.836Z,99022.72
2023-03-10T11:10:28.187Z,99017.94
2023-03-10T11:13:18.371Z,99016.44
2023-03-10T11:16:14.733Z,99025.75
2023-03-10T11:19:10.550Z,99013.88
2023-03-10T11:21:44.171Z,99024.09
2023-03-10T11:24:31.493Z,99027.50
2023-03-10T11:27:25.763Z,99039.75
2023-03-10T11:30:11.145Z,99043.09
2023-03-10T11:32:52.700Z,99038.63
2023-03-10T11:35:47.215Z,99046.28
2023-03-10T11:38:33.310Z,99044.25
2023-03-10T11:41:20.341Z,99051.81
2023-03-10T11:44:22.969Z,99041.00
2023-03-10T11:47:12.227Z,99052.72
2023-03-10T11:49:43.726Z,99030.38
2023-03-10T11:52:19.177Z,99059.63
2023-03-10T11:54:51.339Z,99071.19
2023-03-10T11:57:24.228Z,99081.16
2023-03-10T11:59:57.963Z,99077.47
2023-03-10T12:02:30.019Z,99068.06
2023-03-10T12:05:06.966Z,99083.91
2023-03-10T12:07:37.356Z,99078.13
2023-03-10T12:10:12.901Z,99104.78
2023-03-10T12:12:45.513Z,99112.72
2023-03-10T12:15:12.475Z,99120.44
2023-03-10T12:17:42.080Z,99121.88
2023-03-10T12:20:14.819Z,99118.31
2023-03-10T12:22:43.486Z,99129.66
2023-03-10T12:25:29.173Z,99106.19
2023-03-10T12:28:22.600Z,99125.44
2023-03-10T12:30:51.129Z,99132.97
2023-03-10T12:33:45.598Z,99136.28
2023-03-10T12:36:33.582Z,99130.03
2023-03-10T12:39:26.744Z,99137.34
2023-03-10T12:41:58.284Z,99139.66
2023-03-10T12:44:49.500Z,99145.88
2023-03-10T12:47:29.662Z,99139.94
2023-03-10T12:50:04.800Z,99148.59
2023-03-10T12:52:48.219Z,99135.03
2023-03-10T12:55:22.120Z,99148.59
2023-03-10T12:57:51.741Z,99158.28
2023-03-10T13:00:49.019Z,99150.91
2023-03-10T13:03:25.084Z,99164.47
2023-03-10T13:06:18.748Z,99158.56
2023-03-10T13:09:30.586Z,99134.88
2023-03-10T13:12:04.071Z,99168.75
2023-03-10T13:14:40.691Z,99170.63
2023-03-10T13:17:20.461Z,99172.31
2023-03-10T13:20:00.680Z,99176.34
2023-03-10T13:22:27.978Z,99186.72
2023-03-10T13:25:01.184Z,99165.06
2023-03-10T13:27:31.599Z,99194.69
2023-03-10T13:30:05.725Z,99188.59
2023-03-10T13:32:33.717Z,99187.72
2023-03-10T13:35:23.906Z,99171.13
2023-03-10T13:38:13.577Z,99198.38
2023-03-10T13:40:49.165Z,99186.00
2023-03-10T13:43:37.576Z,99201.19
2023-03-10T13:46:10.037Z,99206.72
2023-03-10T13:48:39.759Z,99204.09
2023-03-10T13:51:08.269Z,99203.94
2023-03-10T13:53:35.730Z,99209.13
2023-03-10T13:56:17.312Z,99147.47
2023-03-10T13:58:46.519Z,99208.94
2023-03-10T14:01:27.085Z,99197.56
2023-03-10T14:04:08.903Z,99212.50
2023-03-10T14:06:36.950Z,99217.91
2023-03-10T14:09:21.801Z,99163.09
2023-03-10T14:11:50.525Z,99209.31
2023-03-10T14:14:36.030Z,99226.41
2023-03-10T14:17:24.603Z,99229.34
2023-03-10T14:19:51.767Z,99222.81
2023-03-10T14:22:32.950Z,99226.97
2023-03-10T14:25:01.496Z,99232.16
2023-03-10T14:27:33.632Z,99217.78
2023-03-10T14:30:03.960Z,99229.09
2023-03-10T14:32:31.022Z,99237.50
2023-03-10T14:34:58.118Z,99247.50
2023-03-10T14:37:25.191Z,99246.63
2023-03-10T14:39:52.216Z,99236.06
2023-03-10T14:42:24.906Z,99250.59
2023-03-10T14:44:53.447Z,99243.09
2023-03-10T14:47:20.771Z,99229.63
2023-03-10T14:49:48.385Z,99248.31
2023-03-10T14:52:17.326Z,99256.41
2023-03-10T14:54:44.722Z,99247.56
2023-03-10T14:57:14.447Z,99266.41
2023-03-10T14:59:41.665Z,99269.03
2023-03-10T15:02:21.391Z,99260.84
2023-03-10T15:04:48.975Z,99272.59
2023-03-10T15:07:17.735Z,99280.38
2023-03-10T15:09:45.621Z,99273.38
2023-03-10T15:12:15.657Z,99289.59
2023-03-10T15:14:45.964Z,99285.78
2023-03-10T15:17:13.070Z,99283.66
2023-03-10T15:19:40.056Z,99301.78
2023-03-10T15:22:07.057Z,99303.31
2023-03-10T15:24:34.123Z,99304.91
2023-03-10T15:27:01.281Z,99250.47
2023-03-10T15:29:28.346Z,99305.59
2023-03-10T15:31:55.351Z,99321.78
2023-03-10T15:34:22.365Z,99320.91
2023-03-10T15:36:49.572Z,99327.88
2023-03-10T15:39:29.300Z,99321.63
2023-03-10T15:41:57.960Z,99282.47
2023-03-10T15:44:25.021Z,99346.63
2023-03-10T15:46:55.064Z,99359.78
2023-03-10T15:49:22.285Z,99358.56
2023-03-10T15:51:49.357Z,99365.66
2023-03-10T15:54:16.461Z,99365.09
2023-03-10T15:56:43.538Z,99366.31
2023-03-10T15:59:10.848Z,99375.69
2023-03-10T16:01:37.990Z,99374.91
2023-03-10T16:04:06.131Z,99379.81
2023-03-10T16:06:34.870Z,99378.00
2023-03-10T16:09:02.278Z,99318.50
2023-03-10T16:11:29.410Z,99383.31
2023-03-10T16:13:56.725Z,99388.59
2023-03-10T16:16:23.893Z,99378.59
2023-03-10T16:18:52.396Z,99390.44
2023-03-10T16:21:20.870Z,99379.03
2023-03-10T16:23:48.271Z,99387.06
2023-03-10T16:26:21.404Z,99372.75
2023-03-10T16:28:53.852Z,99382.34
2023-03-10T16:31:23.259Z,99388.28
2023-03-10T16:33:51.675Z,99393.53
2023-03-10T16:36:21.862Z,99387.88
2023-03-10T16:38:53.830Z,99396.75
2023-03-10T16:41:22.007Z,99386.38
2023-03-10T16:43:49.330Z,99398.47
2023-03-10T16:46:25.542Z,99373.47
2023-03-10T16:48:54.603Z,99404.50
2023-03-10T16:51:25.955Z,99391.25
2023-03-10T16:53:55.580Z,99397.19
2023-03-10T16:56:25.215Z,99395.16
2023-03-10T16:58:53.452Z,99398.50
2023-03-10T17:01:20.683Z,99400.06
2023-03-10T17:03:48.995Z,99406.81
2023-03-10T17:06:20.280Z,99400.16
2023-03-10T17:08:47.259Z,99388.25
2023-03-10T17:11:23.231Z,99396.50
2023-03-10T17:13:53.692Z,99405.78
2023-03-10T17:16:23.654Z,99394.19
2023-03-10T17:18:52.608Z,99351.13
2023-03-10T17:21:24.109Z,99396.69
2023-03-10T17:23:51.798Z,99405.97
2023-03-10T17:26:19.737Z,99409.09
2023-03-10T17:28:49.077Z,99412.03
2023-03-10T17:31:23.695Z,99392.94
2023-03-10T17:33:50.868Z,99397.88
2023-03-10T17:36:19.023Z,99408.34
2023-03-10T17:38:46.244Z,99389.41
2023-03-10T17:41:15.876Z,99418.41
2023-03-10T17:43:44.037Z,99411.56
2023-03-10T17:46:19.870Z,99261.31
2023-03-10T17:48:48.239Z,99420.16
2023-03-10T17:51:23.851Z,99413.63
2023-03-10T17:53:52.087Z,99414.31
2023-03-10T17:56:19.843Z,99417.06
2023-03-10T17:58:46.928Z,99416.06
2023-03-10T18:01:17.019Z,99430.22
2023-03-10T18:03:46.338Z,99357.53
2023-03-10T18:06:17.251Z,99418.13
2023-03-10T18:08:44.559Z,99424.47
2023-03-10T18:11:12.130Z,99391.00
2023-03-10T18:13:39.800Z,99432.56
2023-03-10T18:16:14.145Z,99438.88
2023-03-10T18:18:41.214Z,99426.31
2023-03-10T18:21:12.703Z,99412.06
2023-03-10T18:23:39.982Z,99439.56
2023-03-10T18:26:12.312Z,99441.31
2023-03-10T18:28:40.341Z,99432.94
2023-03-10T18:31:16.206Z,99443.38
2023-03-10T18:33:43.796Z,99437.34
2023-03-10T18:36:13.770Z,99428.56
2023-03-10T18:38:41.370Z,99448.75
2023-03-10T18:41:08.467Z,99446.97
2023-03-10T18:43:35.877Z,99441.72
2023-03-10T18:46:03.499Z,99450.22
2023-03-10T18:48:30.764Z,99449.75
2023-03-10T18:50:59.508Z,99448.78
2023-03-10T18:53:27.584Z,99453.94
2023-03-10T18:55:54.951Z,99457.34
2023-03-10T18:58:22.323Z,99445.47
2023-03-10T19:00:49.753Z,99452.97
2023-03-10T19:03:17.739Z,99465.47
2023-03-10T19:05:45.030Z,99444.38
2023-03-10T19:08:12.602Z,99432.38
2023-03-10T19:10:40.031Z,99461.00
2023-03-10T19:13:08.049Z,99460.88
2023-03-10T19:15:37.494Z,99461.25
2023-03-10T19:18:04.877Z,99469.88
2023-03-10T19:20:31.864Z,99464.41
2023-03-10T19:22:58.850Z,99461.88
2023-03-10T19:25:25.906Z,99453.84
2023-03-10T19:27:52.935Z,99449.44
2023-03-10T19:30:20.606Z,99439.03
2023-03-10T19:32:48.762Z,99454.91
2023-03-10T19:35:16.780Z,99441.75
2023-03-10T19:37:43.853Z,99466.16
2023-03-10T19:40:17.519Z,99464.41
2023-03-10T19:42:45.527Z,99459.50
2023-03-10T19:45:17.615Z,99472.69
2023-03-10T19:47:45.100Z,99459.13
2023-03-10T19:50:15.296Z,99477.28
2023-03-10T19:52:47.351Z,99470.25
2023-03-10T19:55:19.765Z,99488.53
2023-03-10T19:57:48.780Z,99485.50
2023-03-10T20:00:18.972Z,99484.91
2023-03-10T20:02:46.548Z,99490.06
2023-03-10T20:05:15.621Z,99479.63
2023-03-10T20:07:44.688Z,99493.88
2023-03-10T20:10:12.135Z,99496.41
2023-03-10T20:12:39.924Z,99494.66
2023-03-10T20:15:07.459Z,99497.28
2023-03-10T20:17:34.539Z,99500.50
2023-03-10T20:20:03.806Z,99441.34
2023-03-10T20:22:30.966Z,99486.94
2023-03-10T20:24:58.205Z,99434.03
2023-03-10T20:27:25.529Z,99503.06
2023-03-10T20:29:52.549Z,99457.75
2023-03-10T20:32:19.724Z,99502.47
2023-03-10T20:34:46.761Z,99514.47
2023-03-10T20:37:13.816Z,99516.22
2023-03-10T20:39:40.841Z,99496.91
2023-03-10T20:42:08.182Z,99491.72
2023-03-10T20:44:36.296Z,99523.16
2023-03-10T20:47:03.515Z,99531.16
2023-03-10T20:49:30.548Z,99512.91
2023-03-10T20:51:57.562Z,99515.84
2023-03-10T20:54:24.606Z,99519.34
2023-03-10T20:56:51.789Z,99521.88
2023-03-10T20:59:18.807Z,99515.66
2023-03-10T21:01:45.835Z,99531.53
2023-03-10T21:04:12.916Z,99524.53
2023-03-10T21:06:40.086Z,99489.56
2023-03-10T21:09:07.446Z,99543.69
2023-03-10T21:11:35.265Z,99522.97
2023-03-10T21:14:02.390Z,99535.75
2023-03-10T21:16:29.726Z,99506.88
2023-03-10T21:18:57.259Z,99539.56
2023-03-10T21:21:24.418Z,99550.44
2023-03-10T21:23:51.504Z,99551.47
2023-03-10T21:26:21.305Z,99550.69
2023-03-10T21:28:48.687Z,99556.78
2023-03-10T21:31:16.052Z,99553.44
2023-03-10T21:33:43.334Z,99552.25
2023-03-10T21:36:16.415Z,99531.06
2023-03-10T21:38:43.778Z,99561.94
2023-03-10T21:41:14.339Z,99558.13
2023-03-10T21:43:41.357Z,99554.00
2023-03-10T21:46:08.419Z,99550.50
2023-03-10T21:48:35.451Z,99570.34
2023-03-10T21:51:02.456Z,99562.81
2023-03-10T21:53:29.943Z,99575.69
2023-03-10T21:55:57.782Z,99569.84
2023-03-10T21:58:25.122Z,99554.31
2023-03-10T22:00:55.017Z,99587.53
2023-03-10T22:03:23.168Z,99502.09
2023-03-10T22:05:50.652Z,99579.63
2023-03-10T22:08:17.763Z,99572.41
2023-03-10T22:10:45.713Z,99583.22
2023-03-10T22:13:12.810Z,99580.41
2023-03-10T22:15:40.158Z,99570.34
2023-03-10T22:18:07.302Z,99507.34
2023-03-10T22:20:34.539Z,99561.84
2023-03-10T22:23:01.657Z,99582.16
2023-03-10T22:25:28.790Z,99581.28
2023-03-10T22:27:56.599Z,99595.53
2023-03-10T22:30:25.851Z,99597.41
2023-03-10T22:32:53.470Z,99577.50
2023-03-10T22:35:23.238Z,99594.66
2023-03-10T22:37:53.536Z,99574.56
2023-03-10T22:40:23.028Z,99586.47
2023-03-10T22:42:50.128Z,99576.63
2023-03-10T22:45:24.784Z,99596.63
2023-03-10T22:47:57.280Z,99593.13
2023-03-10T22:50:30.535Z,99578.84
2023-03-10T22:52:59.634Z,99598.78
2023-03-10T22:55:27.267Z,99508.31
2023-03-10T22:57:56.602Z,99596.03
2023-03-10T23:00:23.847Z,99585.88
2023-03-10T23:02:52.423Z,99596.91
2023-03-10T23:05:20.575Z,99597.72
2023-03-10T23:07:48.272Z,99597.78
2023-03-10T23:10:19.267Z,99601.88
2023-03-10T23:12:46.380Z,99587.25
2023-03-10T23:15:26.220Z,99594.25
2023-03-10T23:17:55.130Z,99601.22
2023-03-10T23:20:27.394Z,99577.47
2023-03-10T23:22:57.053Z,99592.34
2023-03-10T23:25:30.811Z,99590.59
2023-03-10T23:27:58.614Z,99589.72
2023-03-10T23:30:26.103Z,99594.97
2023-03-10T23:32:53.835Z,99593.69
2023-03-10T23:35:24.678Z,99552.88
2023-03-10T23:37:52.054Z,99536.84
2023-03-10T23:40:21.161Z,99577.09
2023-03-10T23:42:48.527Z,99589.97
2023-03-10T23:45:18.689Z,99569.56
2023-03-10T23:47:46.422Z,99566.94
2023-03-10T23:50:23.616Z,99583.75
2023-03-10T23:52:51.041Z,99575.03
2023-03-10T23:55:21.862Z,99582.16
2023-03-10T23:57:49.711Z,99571.41
